createdAt,value
2018-11-25T00:00:40.899Z,21.70
2018-11-25T00:01:40.844Z,21.30
2018-11-25T00:02:40.785Z,19.80
2018-11-25T00:03:40.728Z,21.80
2018-11-25T00:04:40.675Z,22.10
2018-11-25T00:05:40.644Z,21.10
2018-11-25T00:06:40.565Z,19.70
2018-11-25T00:07:40.513Z,20.40
2018-11-25T00:08:40.453Z,21.90
2018-11-25T00:09:40.400Z,21.90
2018-11-25T00:10:40.366Z,22.30
2018-11-25T00:11:40.291Z,22.00
2018-11-25T00:12:40.232Z,23.90
2018-11-25T00:13:40.177Z,22.10
2018-11-25T00:14:40.123Z,22.60
2018-11-25T00:15:40.088Z,24.10
2018-11-25T00:16:40.011Z,20.30
2018-11-25T00:17:39.950Z,22.30
2018-11-25T00:18:39.899Z,22.90
2018-11-25T00:19:39.849Z,21.50
2018-11-25T00:20:39.814Z,23.10
2018-11-25T00:21:39.745Z,22.70
2018-11-25T00:22:39.678Z,21.30
2018-11-25T00:23:39.619Z,21.60
2018-11-25T00:24:39.562Z,22.40
2018-11-25T00:25:39.531Z,22.80
2018-11-25T00:26:39.449Z,22.00
2018-11-25T00:27:39.395Z,20.80
2018-11-25T00:28:39.340Z,21.70
2018-11-25T00:29:39.281Z,22.10
2018-11-25T00:30:39.265Z,20.70
2018-11-25T00:31:39.174Z,21.80
2018-11-25T00:32:39.114Z,22.40
2018-11-25T00:33:39.062Z,22.50
2018-11-25T00:34:39.009Z,21.60
2018-11-25T00:35:38.988Z,20.30
2018-11-25T00:36:38.893Z,18.70
2018-11-25T00:37:38.849Z,21.10
2018-11-25T00:38:38.785Z,20.60
2018-11-25T00:39:38.733Z,19.90
2018-11-25T00:40:38.694Z,19.60
2018-11-25T00:41:38.613Z,20.60
2018-11-25T00:42:38.562Z,19.50
2018-11-25T00:43:38.504Z,20.30
2018-11-25T00:44:38.464Z,21.60
2018-11-25T00:45:38.430Z,22.50
2018-11-25T00:46:38.339Z,20.20
2018-11-25T00:47:38.286Z,19.90
2018-11-25T00:48:38.224Z,19.20
2018-11-25T00:49:38.170Z,18.70
2018-11-25T00:50:38.144Z,18.70
2018-11-25T00:51:38.081Z,18.00
2018-11-25T00:52:38.001Z,20.30
2018-11-25T00:53:37.957Z,19.60
2018-11-25T00:54:37.890Z,20.20
2018-11-25T00:55:37.835Z,19.80
2018-11-25T00:56:37.803Z,20.30
2018-11-25T00:57:37.725Z,19.30
2018-11-25T00:58:37.669Z,19.30
2018-11-25T00:59:37.614Z,19.30
2018-11-25T01:00:37.562Z,20.40
2018-11-25T01:01:37.527Z,19.90
2018-11-25T01:02:37.465Z,18.70
2018-11-25T01:03:37.392Z,18.10
2018-11-25T01:04:37.339Z,17.10
2018-11-25T01:05:37.283Z,19.50
2018-11-25T01:06:37.264Z,20.60
2018-11-25T01:07:37.172Z,20.00
2018-11-25T01:08:37.143Z,18.40
2018-11-25T01:09:37.059Z,17.40
2018-11-25T01:10:37.007Z,18.90
2018-11-25T01:11:36.969Z,19.40
2018-11-25T01:12:36.898Z,17.40
2018-11-25T01:13:36.836Z,18.30
2018-11-25T01:14:36.784Z,18.70
2018-11-25T01:15:36.726Z,17.60
2018-11-25T01:16:36.701Z,18.00
2018-11-25T01:17:36.614Z,17.90
2018-11-25T01:18:36.559Z,18.10
2018-11-25T01:19:36.504Z,16.50
2018-11-25T01:20:36.466Z,17.20
2018-11-25T01:21:36.430Z,17.10
2018-11-25T01:22:36.336Z,18.70
2018-11-25T01:23:36.284Z,17.80
2018-11-25T01:24:36.224Z,17.40
2018-11-25T01:25:36.172Z,19.50
2018-11-25T01:26:36.114Z,19.50
2018-11-25T01:27:36.087Z,19.70
2018-11-25T01:28:36.003Z,21.70
2018-11-25T01:29:35.947Z,24.90
2018-11-25T01:30:35.891Z,21.70
2018-11-25T01:31:35.854Z,23.00
2018-11-25T01:32:35.807Z,22.20
2018-11-25T01:33:35.727Z,23.60
2018-11-25T01:34:35.672Z,19.30
2018-11-25T01:35:35.617Z,20.00
2018-11-25T01:36:35.563Z,18.40
2018-11-25T01:37:35.528Z,18.90
2018-11-25T01:38:35.452Z,17.40
2018-11-25T01:39:35.396Z,18.20
2018-11-25T01:40:35.344Z,16.70
2018-11-25T01:41:35.287Z,15.80
2018-11-25T01:42:35.262Z,17.50
2018-11-25T01:43:35.172Z,17.50
2018-11-25T01:44:35.119Z,18.50
2018-11-25T01:45:35.066Z,18.20
2018-11-25T01:46:35.024Z,20.40
2018-11-25T01:47:34.981Z,18.90
2018-11-25T01:48:34.900Z,18.60
2018-11-25T01:49:34.842Z,17.10
2018-11-25T01:50:34.786Z,16.50
2018-11-25T01:51:34.734Z,17.40
2018-11-25T01:52:34.700Z,16.50
2018-11-25T01:53:34.631Z,18.40
2018-11-25T01:54:34.566Z,16.10
2018-11-25T01:55:34.507Z,18.20
2018-11-25T01:56:34.473Z,15.90
2018-11-25T01:57:34.425Z,16.00
2018-11-25T01:58:34.346Z,18.30
2018-11-25T01:59:34.289Z,19.20
2018-11-25T02:00:34.232Z,18.50
2018-11-25T02:01:34.178Z,17.40
2018-11-25T02:02:34.145Z,17.20
2018-11-25T02:03:34.066Z,18.10
2018-11-25T02:04:34.014Z,19.50
2018-11-25T02:05:33.957Z,18.90
2018-11-25T02:06:33.902Z,17.70
2018-11-25T02:07:33.873Z,16.80
2018-11-25T02:08:33.793Z,19.30
2018-11-25T02:09:33.735Z,18.90
2018-11-25T02:10:33.682Z,19.90
2018-11-25T02:11:33.627Z,18.30
2018-11-25T02:12:33.613Z,16.50
2018-11-25T02:13:33.514Z,16.90
2018-11-25T02:14:33.466Z,18.10
2018-11-25T02:15:33.403Z,18.60
2018-11-25T02:16:33.350Z,18.30
2018-11-25T02:17:33.294Z,19.50
2018-11-25T02:18:33.264Z,19.40
2018-11-25T02:19:33.184Z,18.20
2018-11-25T02:20:33.129Z,18.40
2018-11-25T02:21:33.071Z,19.10
2018-11-25T02:22:33.022Z,18.00
2018-11-25T02:23:32.998Z,17.60
2018-11-25T02:24:32.910Z,19.20
2018-11-25T02:25:32.855Z,18.40
2018-11-25T02:26:32.797Z,18.40
2018-11-25T02:27:32.739Z,19.30
2018-11-25T02:28:32.708Z,18.90
2018-11-25T02:29:32.633Z,17.30
2018-11-25T02:30:32.580Z,18.00
2018-11-25T02:31:32.518Z,18.80
2018-11-25T02:32:32.467Z,18.40
2018-11-25T02:33:32.434Z,17.10
2018-11-25T02:34:32.359Z,18.80
2018-11-25T02:35:32.300Z,20.30
2018-11-25T02:36:32.243Z,20.00
2018-11-25T02:37:32.187Z,18.50
2018-11-25T02:38:32.153Z,17.70
2018-11-25T02:39:32.077Z,16.60
2018-11-25T02:40:32.024Z,17.70
2018-11-25T02:41:31.965Z,17.50
2018-11-25T02:42:31.915Z,18.50
2018-11-25T02:43:31.881Z,18.30
2018-11-25T02:44:31.799Z,18.90
2018-11-25T02:45:31.746Z,19.30
2018-11-25T02:46:31.690Z,19.20
2018-11-25T02:47:31.636Z,18.40
2018-11-25T02:48:31.600Z,18.50
2018-11-25T02:49:31.521Z,18.80
2018-11-25T02:50:31.467Z,17.60
2018-11-25T02:51:31.422Z,17.00
2018-11-25T02:52:31.363Z,17.80
2018-11-25T02:53:31.327Z,18.90
2018-11-25T02:54:31.249Z,17.10
2018-11-25T02:55:31.191Z,19.40
2018-11-25T02:56:31.133Z,18.10
2018-11-25T02:57:31.087Z,18.10
2018-11-25T02:58:31.053Z,16.60
2018-11-25T02:59:30.967Z,18.30
2018-11-25T03:00:30.916Z,19.60
2018-11-25T03:01:30.859Z,18.80
2018-11-25T03:02:30.804Z,18.40
2018-11-25T03:03:30.773Z,18.90
2018-11-25T03:04:30.693Z,18.00
2018-11-25T03:05:30.639Z,17.80
2018-11-25T03:06:30.589Z,19.10
2018-11-25T03:07:30.534Z,19.20
2018-11-25T03:08:30.502Z,17.30
2018-11-25T03:09:30.416Z,17.90
2018-11-25T03:10:37.551Z,16.70
2018-11-25T03:11:30.303Z,17.10
2018-11-25T03:12:30.254Z,17.10
2018-11-25T03:13:30.218Z,16.30
2018-11-25T03:14:30.138Z,18.20
2018-11-25T03:15:30.080Z,16.80
2018-11-25T03:16:30.032Z,17.00
2018-11-25T03:17:29.968Z,15.90
2018-11-25T03:18:29.951Z,14.60
2018-11-25T03:19:29.861Z,14.00
2018-11-25T03:20:29.808Z,14.00
2018-11-25T03:21:29.746Z,13.80
2018-11-25T03:22:29.697Z,12.90
2018-11-25T03:23:29.635Z,11.60
2018-11-25T03:24:29.601Z,12.40
2018-11-25T03:25:29.531Z,12.50
2018-11-25T03:26:29.467Z,11.20
2018-11-25T03:27:29.409Z,13.00
2018-11-25T03:28:29.354Z,11.80
2018-11-25T03:29:29.325Z,10.50
2018-11-25T03:30:29.242Z,11.40
2018-11-25T03:31:29.188Z,11.40
2018-11-25T03:32:29.129Z,9.80
2018-11-25T03:33:29.077Z,8.50
2018-11-25T03:34:29.047Z,8.70
2018-11-25T03:35:28.961Z,8.50
2018-11-25T03:36:28.909Z,8.40
2018-11-25T03:37:28.851Z,8.90
2018-11-25T03:38:28.797Z,8.60
2018-11-25T03:39:28.769Z,8.60
2018-11-25T03:40:28.683Z,8.90
2018-11-25T03:41:28.624Z,8.60
2018-11-25T03:42:28.571Z,8.30
2018-11-25T03:43:28.515Z,8.90
2018-11-25T03:44:28.480Z,8.30
2018-11-25T03:45:28.407Z,7.60
2018-11-25T03:46:28.347Z,6.70
2018-11-25T03:47:28.290Z,9.20
2018-11-25T03:48:28.235Z,7.30
2018-11-25T03:49:28.212Z,9.20
2018-11-25T03:50:28.122Z,8.60
2018-11-25T03:51:28.069Z,8.60
2018-11-25T03:52:28.005Z,8.50
2018-11-25T03:53:27.954Z,8.90
2018-11-25T03:54:27.896Z,8.40
2018-11-25T03:55:27.859Z,9.30
2018-11-25T03:56:27.785Z,8.40
2018-11-25T03:57:27.729Z,9.00
2018-11-25T03:58:27.673Z,7.10
2018-11-25T03:59:27.614Z,9.90
2018-11-25T04:00:27.599Z,7.30
2018-11-25T04:01:27.501Z,8.10
2018-11-25T04:02:27.444Z,7.60
2018-11-25T04:03:27.391Z,7.20
2018-11-25T04:04:27.333Z,7.10
2018-11-25T04:05:27.300Z,7.90
2018-11-25T04:06:27.225Z,8.20
2018-11-25T04:07:27.166Z,7.80
2018-11-25T04:08:27.110Z,7.20
2018-11-25T04:09:27.070Z,7.20
2018-11-25T04:10:27.026Z,6.70
2018-11-25T04:11:26.940Z,6.10
2018-11-25T04:12:26.887Z,6.20
2018-11-25T04:13:26.828Z,6.30
2018-11-25T04:14:26.770Z,5.80
2018-11-25T04:15:26.736Z,6.70
2018-11-25T04:16:26.663Z,5.10
2018-11-25T04:17:26.611Z,6.10
2018-11-25T04:18:26.546Z,7.40
2018-11-25T04:19:26.487Z,6.50
2018-11-25T04:20:26.456Z,4.60
2018-11-25T04:21:26.373Z,5.80
2018-11-25T04:22:26.322Z,5.60
2018-11-25T04:23:26.265Z,5.60
2018-11-25T04:24:26.209Z,5.40
2018-11-25T04:25:26.175Z,5.10
2018-11-25T04:26:26.097Z,4.50
2018-11-25T04:27:26.038Z,4.90
2018-11-25T04:28:25.980Z,4.10
2018-11-25T04:29:25.928Z,5.30
2018-11-25T04:30:25.892Z,4.90
2018-11-25T04:31:25.815Z,4.30
2018-11-25T04:32:25.756Z,4.50
2018-11-25T04:33:25.705Z,4.30
2018-11-25T04:34:25.644Z,4.80
2018-11-25T04:35:25.613Z,4.50
2018-11-25T04:36:25.534Z,4.00
2018-11-25T04:37:25.479Z,3.90
2018-11-25T04:38:25.421Z,4.10
2018-11-25T04:39:25.365Z,4.30
2018-11-25T04:40:25.334Z,4.50
2018-11-25T04:41:25.253Z,4.80
2018-11-25T04:42:25.196Z,4.00
2018-11-25T04:43:25.155Z,3.90
2018-11-25T04:44:25.085Z,4.50
2018-11-25T04:45:25.054Z,4.00
2018-11-25T04:46:24.971Z,5.10
2018-11-25T04:47:24.919Z,4.70
2018-11-25T04:48:24.860Z,4.30
2018-11-25T04:49:24.800Z,4.40
2018-11-25T04:50:24.772Z,4.90
2018-11-25T04:51:24.699Z,5.50
2018-11-25T04:52:24.634Z,4.60
2018-11-25T04:53:24.579Z,4.30
2018-11-25T04:54:24.523Z,5.30
2018-11-25T04:55:24.503Z,4.90
2018-11-25T04:56:24.408Z,5.00
2018-11-25T04:57:24.363Z,5.90
2018-11-25T04:58:24.299Z,5.10
2018-11-25T04:59:24.240Z,5.60
2018-11-25T05:00:24.187Z,4.60
2018-11-25T05:01:24.151Z,5.00
2018-11-25T05:02:24.075Z,5.20
2018-11-25T05:03:24.013Z,5.70
2018-11-25T05:04:23.961Z,5.50
2018-11-25T05:05:23.912Z,5.30
2018-11-25T05:06:23.874Z,5.40
2018-11-25T05:07:23.794Z,5.00
2018-11-25T05:08:23.736Z,5.70
2018-11-25T05:09:23.680Z,4.40
2018-11-25T05:10:23.626Z,6.20
2018-11-25T05:11:23.591Z,4.90
2018-11-25T05:12:23.519Z,4.70
2018-11-25T05:13:23.459Z,5.30
2018-11-25T05:14:23.406Z,5.00
2018-11-25T05:15:23.345Z,5.60
2018-11-25T05:16:23.314Z,5.30
2018-11-25T05:17:23.237Z,5.70
2018-11-25T05:18:23.180Z,6.30
2018-11-25T05:19:23.119Z,6.50
2018-11-25T05:20:23.065Z,6.00
2018-11-25T05:21:23.043Z,6.00
2018-11-25T05:22:22.951Z,7.00
2018-11-25T05:23:22.897Z,6.40
2018-11-25T05:24:22.840Z,5.90
2018-11-25T05:25:22.784Z,7.10
2018-11-25T05:26:22.729Z,6.70
2018-11-25T05:27:22.697Z,6.70
2018-11-25T05:28:22.619Z,6.20
2018-11-25T05:29:22.563Z,7.00
2018-11-25T05:30:22.504Z,7.00
2018-11-25T05:31:22.462Z,7.50
2018-11-25T05:32:22.416Z,7.10
2018-11-25T05:33:22.338Z,6.90
2018-11-25T05:34:22.283Z,7.50
2018-11-25T05:35:22.225Z,7.60
2018-11-25T05:36:22.170Z,8.10
2018-11-25T05:37:22.140Z,7.20
2018-11-25T05:38:22.055Z,7.10
2018-11-25T05:39:21.999Z,8.90
2018-11-25T05:40:21.951Z,7.80
2018-11-25T05:41:21.888Z,8.30
2018-11-25T05:42:21.860Z,9.00
2018-11-25T05:43:21.780Z,7.40
2018-11-25T05:44:21.720Z,7.70
2018-11-25T05:45:21.665Z,9.40
2018-11-25T05:46:21.610Z,8.70
2018-11-25T05:47:21.576Z,8.80
2018-11-25T05:48:21.497Z,9.30
2018-11-25T05:49:21.444Z,8.10
2018-11-25T05:50:21.387Z,8.60
2018-11-25T05:51:21.329Z,8.00
2018-11-25T05:52:21.294Z,8.30
2018-11-25T05:53:21.215Z,8.00
2018-11-25T05:54:21.161Z,8.70
2018-11-25T05:55:21.106Z,8.40
2018-11-25T05:56:21.049Z,8.80
2018-11-25T05:57:21.020Z,9.20
2018-11-25T05:58:20.939Z,9.80
2018-11-25T05:59:20.893Z,9.90
2018-11-25T06:00:20.823Z,8.40
2018-11-25T06:01:20.772Z,9.00
2018-11-25T06:02:20.737Z,9.20
2018-11-25T06:03:20.657Z,8.80
2018-11-25T06:04:20.601Z,8.40
2018-11-25T06:05:20.550Z,10.40
2018-11-25T06:06:20.488Z,10.80
2018-11-25T06:07:20.453Z,9.50
2018-11-25T06:08:20.380Z,10.20
2018-11-25T06:09:20.320Z,8.60
2018-11-25T06:10:20.268Z,10.00
2018-11-25T06:11:20.207Z,10.50
2018-11-25T06:12:20.175Z,10.40
2018-11-25T06:13:20.097Z,12.00
2018-11-25T06:14:20.040Z,10.90
2018-11-25T06:15:19.986Z,10.70
2018-11-25T06:16:19.929Z,9.60
2018-11-25T06:17:19.900Z,9.40
2018-11-25T06:18:19.814Z,10.90
2018-11-25T06:19:19.762Z,10.90
2018-11-25T06:20:19.739Z,9.70
2018-11-25T06:21:19.649Z,10.10
2018-11-25T06:22:19.624Z,12.20
2018-11-25T06:23:19.542Z,11.30
2018-11-25T06:24:19.490Z,10.80
2018-11-25T06:25:19.426Z,10.90
2018-11-25T06:26:19.369Z,12.30
2018-11-25T06:27:19.342Z,12.40
2018-11-25T06:28:19.255Z,13.10
2018-11-25T06:29:19.197Z,13.50
2018-11-25T06:30:19.143Z,12.50
2018-11-25T06:31:19.089Z,13.40
2018-11-25T06:32:19.066Z,12.20
2018-11-25T06:33:18.977Z,12.60
2018-11-25T06:34:18.925Z,11.70
2018-11-25T06:35:18.866Z,13.40
2018-11-25T06:36:18.805Z,14.50
2018-11-25T06:37:18.751Z,14.60
2018-11-25T06:38:18.719Z,15.00
2018-11-25T06:39:18.639Z,14.10
2018-11-25T06:40:18.589Z,14.60
2018-11-25T06:41:18.528Z,14.40
2018-11-25T06:42:18.476Z,14.80
2018-11-25T06:43:18.438Z,15.50
2018-11-25T06:44:18.364Z,15.50
2018-11-25T06:45:18.303Z,15.50
2018-11-25T06:46:18.244Z,15.60
2018-11-25T06:47:18.191Z,17.90
2018-11-25T06:48:18.159Z,17.00
2018-11-25T06:49:18.077Z,16.10
2018-11-25T06:50:18.021Z,16.20
2018-11-25T06:51:17.967Z,16.80
2018-11-25T06:52:17.910Z,18.10
2018-11-25T06:53:17.875Z,15.80
2018-11-25T06:54:17.793Z,15.40
2018-11-25T06:55:17.752Z,15.90
2018-11-25T06:56:17.681Z,16.00
2018-11-25T06:57:17.627Z,16.80
2018-11-25T06:58:17.599Z,17.00
2018-11-25T06:59:17.513Z,17.30
2018-11-25T07:00:17.461Z,16.50
2018-11-25T07:01:17.408Z,17.80
2018-11-25T07:02:17.344Z,15.30
2018-11-25T07:03:17.313Z,15.10
2018-11-25T07:04:17.240Z,16.30
2018-11-25T07:05:17.177Z,15.80
2018-11-25T07:06:17.122Z,14.50
2018-11-25T07:07:17.061Z,15.60
2018-11-25T07:08:17.031Z,17.10
2018-11-25T07:09:16.950Z,16.10
2018-11-25T07:10:16.898Z,16.20
2018-11-25T07:11:16.838Z,17.70
2018-11-25T07:12:16.846Z,16.10
2018-11-25T07:13:16.749Z,16.80
2018-11-25T07:14:16.671Z,17.60
2018-11-25T07:15:16.613Z,16.40
2018-11-25T07:16:16.557Z,16.30
2018-11-25T07:17:16.504Z,17.30
2018-11-25T07:18:16.470Z,17.90
2018-11-25T07:19:16.391Z,17.00
2018-11-25T07:20:16.334Z,16.50
2018-11-25T07:21:16.278Z,17.40
2018-11-25T07:22:16.223Z,17.10
2018-11-25T07:23:16.190Z,15.90
2018-11-25T07:24:16.108Z,16.90
2018-11-25T07:25:16.053Z,17.90
2018-11-25T07:26:15.994Z,17.40
2018-11-25T07:27:15.938Z,17.00
2018-11-25T07:28:18.576Z,16.30
2018-11-25T07:29:15.830Z,16.10
2018-11-25T07:30:15.771Z,15.70
2018-11-25T07:31:15.717Z,17.60
2018-11-25T07:32:15.659Z,15.70
2018-11-25T07:33:15.628Z,17.30
2018-11-25T07:34:15.545Z,18.90
2018-11-25T07:35:15.488Z,19.40
2018-11-25T07:36:15.433Z,19.20
2018-11-25T07:37:15.377Z,19.10
2018-11-25T07:38:15.366Z,18.60
2018-11-25T07:39:15.264Z,19.30
2018-11-25T07:40:15.209Z,20.00
2018-11-25T07:41:15.155Z,18.50
2018-11-25T07:42:15.098Z,17.10
2018-11-25T07:43:15.062Z,18.50
2018-11-25T07:44:14.984Z,17.90
2018-11-25T07:45:14.926Z,18.90
2018-11-25T07:46:14.872Z,19.60
2018-11-25T07:47:14.817Z,16.80
2018-11-25T07:48:14.794Z,17.00
2018-11-25T07:49:14.717Z,15.90
2018-11-25T07:50:14.647Z,16.80
2018-11-25T07:51:14.587Z,18.50
2018-11-25T07:52:14.537Z,15.90
2018-11-25T07:53:14.515Z,21.10
2018-11-25T07:54:14.425Z,18.50
2018-11-25T07:55:14.372Z,19.60
2018-11-25T07:56:14.310Z,21.70
2018-11-25T07:57:14.252Z,18.90
2018-11-25T07:58:14.199Z,18.90
2018-11-25T07:59:14.165Z,18.80
2018-11-25T08:00:14.085Z,22.10
2018-11-25T08:01:14.028Z,21.10
2018-11-25T08:02:13.970Z,17.00
2018-11-25T08:03:13.915Z,17.80
2018-11-25T08:04:13.884Z,20.20
2018-11-25T08:05:13.803Z,18.20
2018-11-25T08:06:13.753Z,18.60
2018-11-25T08:07:13.698Z,18.60
2018-11-25T08:08:13.638Z,18.00
2018-11-25T08:09:13.605Z,16.40
2018-11-25T08:10:13.520Z,18.10
2018-11-25T08:11:13.467Z,19.90
2018-11-25T08:12:13.411Z,20.20
2018-11-25T08:13:13.363Z,20.20
2018-11-25T08:14:13.327Z,19.40
2018-11-25T08:15:13.241Z,22.30
2018-11-25T08:16:13.185Z,18.90
2018-11-25T08:17:13.144Z,20.80
2018-11-25T08:18:13.074Z,18.90
2018-11-25T08:19:13.043Z,19.80
2018-11-25T08:20:12.962Z,18.60
2018-11-25T08:21:12.915Z,20.20
2018-11-25T08:22:12.849Z,19.60
2018-11-25T08:23:13.632Z,19.10
2018-11-25T08:24:12.770Z,18.30
2018-11-25T08:25:12.681Z,19.60
2018-11-25T08:26:12.626Z,19.30
2018-11-25T08:27:12.566Z,21.90
2018-11-25T08:28:12.514Z,19.00
2018-11-25T08:29:12.478Z,19.90
2018-11-25T08:30:12.401Z,20.20
2018-11-25T08:31:12.342Z,20.70
2018-11-25T08:32:12.285Z,19.20
2018-11-25T08:33:12.263Z,18.70
2018-11-25T08:34:12.201Z,20.50
2018-11-25T08:35:12.116Z,20.70
2018-11-25T08:36:12.066Z,19.00
2018-11-25T08:37:12.008Z,20.90
2018-11-25T08:38:11.951Z,19.40
2018-11-25T08:39:11.922Z,19.50
2018-11-25T08:40:11.836Z,19.50
2018-11-25T08:41:11.780Z,18.40
2018-11-25T08:42:11.729Z,17.50
2018-11-25T08:43:11.671Z,19.40
2018-11-25T08:44:11.640Z,16.40
2018-11-25T08:45:11.555Z,18.60
2018-11-25T08:46:11.498Z,19.50
2018-11-25T08:47:11.443Z,17.10
2018-11-25T08:48:11.389Z,20.30
2018-11-25T08:49:11.363Z,20.40
2018-11-25T08:50:11.274Z,19.20
2018-11-25T08:51:11.221Z,20.10
2018-11-25T08:52:11.165Z,16.40
2018-11-25T08:53:11.114Z,19.80
2018-11-25T08:54:11.076Z,19.80
2018-11-25T08:55:10.997Z,17.20
2018-11-25T08:56:10.941Z,20.30
2018-11-25T08:57:10.888Z,19.30
2018-11-25T08:58:10.831Z,17.40
2018-11-25T08:59:10.793Z,19.10
2018-11-25T09:00:10.717Z,18.10
2018-11-25T09:01:10.658Z,20.30
2018-11-25T09:02:10.604Z,16.90
2018-11-25T09:03:10.544Z,19.40
2018-11-25T09:04:10.516Z,16.20
2018-11-25T09:05:10.439Z,19.10
2018-11-25T09:06:10.377Z,20.00
2018-11-25T09:07:10.322Z,17.60
2018-11-25T09:08:10.266Z,17.70
2018-11-25T09:09:10.233Z,18.00
2018-11-25T09:10:10.156Z,18.00
2018-11-25T09:11:10.098Z,17.50
2018-11-25T09:12:10.045Z,16.60
2018-11-25T09:13:09.992Z,20.40
2018-11-25T09:14:09.955Z,21.30
2018-11-25T09:15:09.872Z,19.70
2018-11-25T09:16:09.817Z,20.30
2018-11-25T09:17:09.764Z,21.40
2018-11-25T09:18:09.710Z,18.80
2018-11-25T09:19:09.674Z,18.80
2018-11-25T09:20:09.594Z,20.60
2018-11-25T09:21:09.539Z,21.80
2018-11-25T09:22:09.488Z,21.40
2018-11-25T09:23:09.424Z,20.60
2018-11-25T09:24:09.411Z,22.20
2018-11-25T09:25:09.310Z,20.70
2018-11-25T09:26:09.257Z,18.60
2018-11-25T09:27:09.196Z,20.10
2018-11-25T09:28:09.147Z,19.60
2018-11-25T09:29:09.091Z,18.00
2018-11-25T09:30:09.055Z,23.10
2018-11-25T09:31:08.973Z,20.50
2018-11-25T09:32:08.918Z,19.40
2018-11-25T09:33:08.866Z,19.40
2018-11-25T09:34:08.811Z,20.90
2018-11-25T09:35:08.778Z,19.90
2018-11-25T09:36:08.695Z,22.70
2018-11-25T09:37:08.638Z,18.30
2018-11-25T09:38:08.620Z,20.80
2018-11-25T09:39:08.533Z,20.70
2018-11-25T09:40:08.506Z,20.50
2018-11-25T09:41:08.412Z,19.60
2018-11-25T09:42:08.358Z,20.80
2018-11-25T09:43:08.301Z,19.60
2018-11-25T09:44:08.245Z,19.90
2018-11-25T09:45:08.214Z,21.50
2018-11-25T09:46:08.135Z,18.80
2018-11-25T09:47:08.084Z,21.60
2018-11-25T09:48:08.022Z,20.60
2018-11-25T09:49:07.966Z,22.40
2018-11-25T09:50:07.935Z,19.60
2018-11-25T09:51:07.853Z,17.10
2018-11-25T09:52:07.793Z,19.10
2018-11-25T09:53:07.742Z,20.20
2018-11-25T09:54:07.685Z,19.70
2018-11-25T09:55:07.651Z,19.20
2018-11-25T09:56:07.571Z,19.60
2018-11-25T09:57:07.519Z,18.80
2018-11-25T09:58:07.462Z,18.90
2018-11-25T09:59:07.403Z,19.60
2018-11-25T10:00:07.374Z,19.40
2018-11-25T10:01:07.299Z,17.60
2018-11-25T10:02:07.243Z,19.70
2018-11-25T10:03:07.208Z,18.10
2018-11-25T10:04:07.125Z,19.30
2018-11-25T10:05:07.091Z,20.40
2018-11-25T10:06:07.018Z,18.50
2018-11-25T10:07:06.960Z,18.30
2018-11-25T10:08:06.905Z,17.00
2018-11-25T10:09:06.849Z,19.70
2018-11-25T10:10:06.812Z,16.40
2018-11-25T10:11:06.752Z,15.80
2018-11-25T10:12:06.689Z,18.00
2018-11-25T10:13:06.627Z,16.60
2018-11-25T10:14:06.565Z,17.30
2018-11-25T10:15:06.537Z,18.10
2018-11-25T10:16:06.460Z,17.10
2018-11-25T10:17:06.407Z,17.80
2018-11-25T10:18:06.346Z,16.60
2018-11-25T10:19:06.381Z,17.40
2018-11-25T10:20:06.270Z,16.10
2018-11-25T10:21:06.177Z,16.00
2018-11-25T10:22:06.127Z,16.30
2018-11-25T10:23:06.064Z,16.60
2018-11-25T10:24:06.008Z,13.80
2018-11-25T10:25:08.044Z,15.20
2018-11-25T10:26:05.896Z,16.40
2018-11-25T10:27:05.841Z,17.20
2018-11-25T10:28:05.785Z,16.70
2018-11-25T10:29:05.732Z,16.40
2018-11-25T10:30:05.709Z,18.00
2018-11-25T10:31:05.621Z,16.90
2018-11-25T10:32:05.568Z,15.80
2018-11-25T10:33:05.512Z,14.90
2018-11-25T10:34:05.452Z,15.70
2018-11-25T10:35:05.451Z,15.00
2018-11-25T10:36:05.377Z,14.90
2018-11-25T10:37:05.284Z,15.80
2018-11-25T10:38:05.228Z,14.40
2018-11-25T10:39:05.171Z,16.40
2018-11-25T10:40:05.142Z,16.60
2018-11-25T10:41:05.063Z,17.20
2018-11-25T10:42:05.004Z,15.80
2018-11-25T10:43:04.951Z,15.20
2018-11-25T10:44:04.890Z,15.60
2018-11-25T10:45:04.867Z,17.60
2018-11-25T10:46:04.788Z,16.30
2018-11-25T10:47:04.737Z,14.50
2018-11-25T10:48:04.670Z,16.70
2018-11-25T10:49:04.616Z,16.10
2018-11-25T10:50:04.581Z,18.40
2018-11-25T10:51:04.500Z,16.70
2018-11-25T10:52:04.447Z,17.40
2018-11-25T10:53:04.388Z,16.00
2018-11-25T10:54:04.349Z,17.20
2018-11-25T10:55:04.311Z,18.80
2018-11-25T10:56:04.221Z,16.90
2018-11-25T10:57:04.169Z,18.80
2018-11-25T10:58:04.117Z,16.60
2018-11-25T10:59:04.055Z,18.50
2018-11-25T11:00:03.998Z,20.80
2018-11-25T11:01:03.975Z,20.50
2018-11-25T11:02:03.883Z,20.10
2018-11-25T11:03:03.831Z,18.80
2018-11-25T11:04:03.772Z,22.30
2018-11-25T11:05:03.719Z,20.50
2018-11-25T11:06:03.689Z,20.20
2018-11-25T11:07:03.610Z,20.70
2018-11-25T11:08:03.556Z,21.60
2018-11-25T11:09:03.497Z,20.20
2018-11-25T11:10:03.441Z,20.20
2018-11-25T11:11:03.409Z,21.90
2018-11-25T11:12:03.329Z,24.80
2018-11-25T11:13:03.273Z,24.10
2018-11-25T11:14:03.217Z,22.10
2018-11-25T11:15:03.160Z,21.60
2018-11-25T11:16:03.126Z,23.10
2018-11-25T11:17:03.048Z,22.10
2018-11-25T11:18:02.993Z,20.30
2018-11-25T11:19:02.936Z,21.90
2018-11-25T11:20:02.882Z,19.90
2018-11-25T11:21:02.850Z,19.10
2018-11-25T11:22:02.770Z,22.20
2018-11-25T11:23:02.721Z,22.20
2018-11-25T11:24:02.662Z,22.70
2018-11-25T11:25:02.603Z,21.20
2018-11-25T11:26:07.007Z,26.70
2018-11-25T11:27:02.499Z,21.00
2018-11-25T11:28:02.434Z,21.50
2018-11-25T11:29:02.383Z,23.80
2018-11-25T11:30:02.325Z,21.90
2018-11-25T11:31:02.292Z,23.70
2018-11-25T11:32:02.211Z,23.30
2018-11-25T11:33:02.156Z,26.60
2018-11-25T11:34:02.101Z,22.70
2018-11-25T11:35:02.044Z,23.90
2018-11-25T11:36:02.013Z,23.30
2018-11-25T11:37:01.930Z,23.60
2018-11-25T11:38:01.876Z,25.60
2018-11-25T11:39:01.820Z,22.50
2018-11-25T11:40:01.765Z,26.90
2018-11-25T11:41:01.733Z,25.20
2018-11-25T11:42:01.657Z,27.50
2018-11-25T11:43:01.610Z,23.10
2018-11-25T11:44:01.543Z,24.70
2018-11-25T11:45:01.486Z,25.10
2018-11-25T11:46:01.455Z,24.60
2018-11-25T11:47:01.375Z,20.80
2018-11-25T11:48:01.317Z,22.30
2018-11-25T11:49:01.261Z,23.30
2018-11-25T11:50:01.247Z,26.30
2018-11-25T11:51:01.183Z,23.60
2018-11-25T11:52:01.098Z,23.30
2018-11-25T11:53:01.041Z,23.80
2018-11-25T11:54:00.983Z,24.30
2018-11-25T11:55:00.927Z,24.00
2018-11-25T11:56:00.878Z,24.90
2018-11-25T11:57:00.837Z,23.80
2018-11-25T11:58:00.762Z,23.30
2018-11-25T11:59:00.712Z,24.30
2018-11-25T12:00:00.651Z,23.90
2018-11-25T12:01:00.592Z,21.60
2018-11-25T12:02:00.565Z,21.80
2018-11-25T12:03:00.484Z,23.40
2018-11-25T12:04:00.439Z,23.30
2018-11-25T12:05:00.370Z,22.20
2018-11-25T12:06:00.323Z,23.80
2018-11-25T12:07:00.280Z,23.80
2018-11-25T12:08:00.235Z,21.00
2018-11-25T12:09:00.150Z,23.80
2018-11-25T12:10:00.118Z,21.00
2018-11-25T12:11:00.044Z,20.20
2018-11-25T12:12:00.009Z,21.40
2018-11-25T12:12:59.924Z,21.20
2018-11-25T12:13:59.874Z,23.50
2018-11-25T12:14:59.812Z,24.60
2018-11-25T12:15:59.761Z,25.00
2018-11-25T12:16:59.728Z,23.50
2018-11-25T12:17:59.651Z,22.70
2018-11-25T12:18:59.607Z,24.20
2018-11-25T12:19:59.533Z,20.30
2018-11-25T12:20:59.482Z,21.10
2018-11-25T12:21:59.448Z,19.60
2018-11-25T12:22:59.404Z,20.70
2018-11-25T12:23:59.312Z,20.60
2018-11-25T12:24:59.264Z,21.80
2018-11-25T12:25:59.202Z,21.30
2018-11-25T12:26:59.177Z,20.90
2018-11-25T12:27:59.092Z,20.90
2018-11-25T12:28:59.037Z,23.30
2018-11-25T12:29:58.983Z,22.30
2018-11-25T12:30:58.930Z,24.40
2018-11-25T12:31:58.897Z,24.10
2018-11-25T12:32:58.821Z,22.00
2018-11-25T12:33:58.764Z,23.20
2018-11-25T12:34:58.704Z,21.80
2018-11-25T12:35:58.659Z,22.80
2018-11-25T12:36:58.624Z,21.00
2018-11-25T12:37:58.538Z,22.60
2018-11-25T12:38:58.484Z,21.80
2018-11-25T12:39:58.426Z,23.50
2018-11-25T12:40:58.372Z,22.00
2018-11-25T12:41:58.338Z,21.60
2018-11-25T12:42:58.262Z,24.50
2018-11-25T12:43:58.217Z,19.50
2018-11-25T12:44:58.152Z,22.50
2018-11-25T12:45:58.094Z,22.90
2018-11-25T12:46:58.064Z,22.50
2018-11-25T12:47:57.982Z,20.60
2018-11-25T12:48:57.926Z,21.30
2018-11-25T12:49:57.876Z,21.30
2018-11-25T12:50:57.819Z,22.50
2018-11-25T12:51:57.786Z,21.60
2018-11-25T12:52:57.708Z,21.30
2018-11-25T12:53:57.652Z,23.70
2018-11-25T12:54:57.590Z,23.00
2018-11-25T12:55:57.541Z,24.00
2018-11-25T12:56:57.573Z,25.50